Time;durP1;ratioP1;P1;durP2;ratioP2;P2;SDS_P1;SDS_P2;PMS_P1;PMS_P2;Temp;Humidity;BMP_temperature;BMP_pressure;BME280_temperature;BME280_humidity;BME280_pressure;Samples;Min_cycle;Max_cycle;Signal;HPM_P1;HPM_P2
2023/04/02 06:15:22;;;;;;;2.03;1.40;;;;;;;6.94;99.92;95069.59;6015260;23;20220;-85
2023/04/02 06:20:24;;;;;;;2.70;1.00;;;;;;;6.97;99.39;95077.06;6023917;23;20216;-79
2023/04/02 06:23:02;;;;;;;1.17;1.07;;;;;;;7.07;99.64;95074.50;6042495;23;20164;-79
2023/04/02 06:25:38;;;;;;;2.27;1.40;;;;;;;7.00;99.51;95069.06;6016701;23;20633;-80
2023/04/02 06:28:05;;;;;;;2.57;1.80;;;;;;;6.98;99.14;95072.72;6043038;23;20160;-81
2023/04/02 06:30:33;;;;;;;1.93;1.60;;;;;;;7.07;99.32;95077.88;6045555;23;20164;-81
2023/04/02 06:32:59;;;;;;;2.47;2.27;;;;;;;7.14;98.67;95079.91;6070298;23;20211;-81
2023/04/02 06:35:24;;;;;;;3.37;2.77;;;;;;;7.10;98.16;95080.19;6068993;23;20228;-80
2023/04/02 09:46:14;;;;;;;0.70;0.70;;;;;;;10.56;76.06;95337.50;5997114;23;20222;-81
2023/04/02 09:48:43;;;;;;;0.70;0.70;;;;;;;10.42;76.65;95341.44;5976761;24;20266;-82
2023/04/02 09:51:08;;;;;;;0.60;0.60;;;;;;;10.54;74.97;95349.81;5959036;24;20175;-82
2023/04/02 09:53:40;;;;;;;0.60;0.60;;;;;;;10.51;74.92;95350.91;5984543;24;20206;-83
2023/04/02 09:56:12;;;;;;;0.60;0.50;;;;;;;10.34;73.88;95355.22;5958753;24;20151;-83
2023/04/02 12:58:57;;;;;;;1.10;1.00;;;;;;;11.00;66.17;95517.53;5990948;23;20655;-82
2023/04/02 13:02:05;;;;;;;;;;;;;;;;;;;;;
2023/04/02 13:34:45;;;;;;;1.30;1.20;;;;;;;10.02;73.60;95539.09;5926954;24;20195;-80
2023/04/02 13:37:11;;;;;;;2.60;1.10;;;;;;;10.18;73.44;95540.09;5953088;24;20180;-79
2023/04/02 13:39:36;;;;;;;3.23;1.73;;;;;;;10.09;73.49;95534.97;5959345;24;20188;-79
2023/04/02 13:42:03;;;;;;;2.30;1.30;;;;;;;10.07;74.88;95539.44;5947730;24;20223;-80
2023/04/02 13:44:34;;;;;;;1.40;1.30;;;;;;;10.13;75.39;95541.47;5950956;24;20195;-81
2023/04/02 13:47:00;;;;;;;1.37;1.20;;;;;;;10.23;74.34;95546.66;5927587;24;20164;-81
2023/04/02 13:49:26;;;;;;;2.03;1.30;;;;;;;9.97;75.97;95549.06;5931068;24;20194;-84
2023/04/02 13:51:53;;;;;;;1.80;1.70;;;;;;;10.14;75.68;95549.13;5955820;24;20188;-82
2023/04/02 13:54:32;;;;;;;3.20;1.40;;;;;;;9.84;76.26;95554.59;5952070;24;20176;-84
2023/04/02 13:56:58;;;;;;;1.37;1.10;;;;;;;9.76;77.91;95552.72;5925819;24;20619;-83
2023/04/02 13:59:23;;;;;;;1.93;1.57;;;;;;;9.70;78.53;95557.63;5927116;24;20195;-81
2023/04/02 14:01:51;;;;;;;3.53;3.23;;;;;;;9.11;84.71;95567.34;5928349;24;20674;-82
2023/04/02 14:04:20;;;;;;;2.33;2.13;;;;;;;8.91;86.86;95569.09;5950795;24;20670;-84
2023/04/02 14:07:27;;;;;;;;;;;;;;;;;;;;;
2023/04/02 14:10:00;;;;;;;3.50;3.20;;;;;;;8.48;90.49;95587.59;5949676;24;20809;-86
2023/04/02 14:12:54;;;;;;;2.87;2.67;;;;;;;8.30;91.99;95583.97;6009280;23;20174;-85
2023/04/02 14:15:38;;;;;;;3.33;3.03;;;;;;;8.58;90.89;95583.28;6008609;23;20211;-86
2023/04/02 14:18:14;;;;;;;3.80;3.00;;;;;;;8.92;88.91;95593.22;6008395;23;20226;-86
2023/04/02 14:21:13;;;;;;;2.57;2.40;;;;;;;8.63;90.15;95595.78;6008068;23;20155;-84
2023/04/02 14:23:58;;;;;;;2.37;2.27;;;;;;;8.76;90.21;95594.59;6010096;23;20147;-85
2023/04/02 14:27:06;;;;;;;2.70;2.50;;;;;;;8.67;89.82;95598.00;6030940;23;20184;-85
2023/04/02 14:29:49;;;;;;;2.83;2.63;;;;;;;8.45;91.75;95609.38;6011550;23;20185;-84
2023/04/02 14:32:23;;;;;;;2.50;2.30;;;;;;;8.39;91.76;95611.69;6009128;23;20168;-84
2023/04/02 14:35:20;;;;;;;6.87;4.87;;;;;;;8.49;92.33;95612.53;6008487;23;20159;-85
2023/04/02 14:38:13;;;;;;;5.47;3.77;;;;;;;8.12;95.05;95615.66;6004277;23;20185;-85
2023/04/02 14:40:52;;;;;;;4.60;4.20;;;;;;;8.30;94.64;95613.25;6031799;23;20167;-85
2023/04/02 14:44:11;;;;;;;3.07;2.77;;;;;;;8.18;94.99;95612.56;6031894;23;20207;-83
2023/04/02 14:46:37;;;;;;;2.47;2.37;;;;;;;7.94;96.86;95620.63;6004742;23;20195;-86
2023/04/02 14:49:24;;;;;;;3.67;2.87;;;;;;;7.94;96.45;95619.81;6031244;23;20264;-83
2023/04/02 14:51:59;;;;;;;2.80;2.60;;;;;;;8.08;96.23;95629.00;6010405;23;20209;-85
2023/04/02 14:58:10;;;;;;;2.90;2.70;;;;;;;7.96;94.05;95633.44;6005178;23;20190;-86
2023/04/02 15:01:19;;;;;;;;;;;;;;;;;;;;;
2023/04/02 15:04:26;;;;;;;2.30;2.10;;;;;;;7.77;94.64;95631.56;5981424;24;20230;-86
2023/04/02 15:06:56;;;;;;;3.10;2.80;;;;;;;7.56;95.46;95638.53;5898867;24;20686;-86
2023/04/02 15:09:34;;;;;;;3.43;2.53;;;;;;;7.63;96.09;95640.47;5898821;24;20189;-86
2023/04/02 15:12:07;;;;;;;5.07;3.37;;;;;;;7.67;95.08;95647.03;5875683;24;20169;-85
2023/04/02 15:14:51;;;;;;;4.40;3.50;;;;;;;7.31;97.61;95650.88;5898538;24;20169;-84
2023/04/02 15:17:27;;;;;;;4.50;4.10;;;;;;;7.40;96.75;95644.13;5896797;24;20699;-85
2023/04/02 15:20:26;;;;;;;;;;;;;;;;;;;;;
2023/04/02 15:23:53;;;;;;;6.40;3.83;;;;;;;7.61;95.44;95657.88;5847368;24;20275;-84
2023/04/02 15:27:09;;;;;;;5.53;4.50;;;;;;;7.47;94.73;95665.94;5846091;24;20214;-86
2023/04/02 15:30:13;;;;;;;3.73;3.43;;;;;;;7.38;95.16;95661.53;5842347;24;20186;-85
2023/04/02 15:32:52;;;;;;;10.37;5.50;;;;;;;7.43;93.52;95663.75;5765894;24;20234;-86
2023/04/02 15:35:34;;;;;;;8.13;3.67;;;;;;;7.53;93.56;95673.19;5764564;24;20253;-85
2023/04/02 15:38:21;;;;;;;5.20;3.80;;;;;;;7.23;94.78;95670.50;5744839;24;20184;-86
2023/04/02 15:41:30;;;;;;;3.30;3.00;;;;;;;7.19;95.96;95677.69;5766400;24;20251;-85
2023/04/02 15:44:58;;;;;;;5.87;4.80;;;;;;;6.91;97.00;95675.69;5766161;24;20165;-85
2023/04/02 15:51:42;;;;;;;3.13;2.80;;;;;;;6.97;96.53;95688.91;5818597;24;20192;-85
2023/04/02 15:58:25;;;;;;;;;;;;;;;;;;;;;
2023/04/02 16:01:32;;;;;;;;;;;;;;;;;;;;;
2023/04/02 16:04:46;;;;;;;3.13;2.83;;;;;;;6.72;99.91;95702.97;5818056;24;20674;-84
2023/04/02 16:34:44;;;;;;;3.50;3.20;;;;;;;6.86;92.51;95752.66;5927085;24;20188;-87
2023/04/02 16:37:56;;;;;;;4.23;3.83;;;;;;;6.89;92.34;95745.53;5904673;24;20172;-87
2023/04/02 16:48:32;;;;;;;;;;;;;;;;;;;;;
2023/04/02 16:58:34;;;;;;;;;;;;;;;;;;;;;
2023/04/02 17:01:41;;;;;;;2.13;2.03;;;;;;;6.39;91.40;95788.13;6044379;23;20177;-87
2023/04/02 17:14:56;;;;;;;3.30;2.50;;;;;;;6.38;89.87;95815.66;6017440;23;20194;-87
2023/04/02 17:17:43;;;;;;;3.40;2.50;;;;;;;6.34;90.11;95809.09;5958494;23;20218;-87
2023/04/02 17:34:33;;;;;;;3.23;2.93;;;;;;;6.17;88.44;95843.03;5790772;24;20183;-86
2023/04/02 17:37:37;;;;;;;3.27;3.00;;;;;;;6.08;88.62;95846.31;5798153;24;20207;-86
2023/04/02 17:40:35;;;;;;;3.27;2.97;;;;;;;6.17;87.94;95841.28;5791530;24;20294;-86
2023/04/02 17:43:33;;;;;;;2.87;2.67;;;;;;;6.21;86.67;95850.47;5792498;24;20164;-87
2023/04/02 17:46:23;;;;;;;3.43;3.00;;;;;;;5.99;87.51;95868.41;5790268;24;20203;-85
2023/04/02 17:49:10;;;;;;;2.90;2.70;;;;;;;5.94;87.15;95873.94;5771942;24;20192;-85
2023/04/02 17:51:38;;;;;;;3.47;2.63;;;;;;;5.66;88.90;95885.38;5789965;24;20279;-87
2023/04/02 17:54:26;;;;;;;2.63;2.43;;;;;;;5.72;87.56;95886.66;5789326;24;20182;-86
2023/04/02 17:57:29;;;;;;;5.83;3.87;;;;;;;5.54;88.02;95890.56;5799044;24;20174;-84
2023/04/02 18:00:03;;;;;;;3.80;3.20;;;;;;;5.71;86.46;95897.91;5817258;24;20542;-83
2023/04/02 18:03:11;;;;;;;3.43;2.90;;;;;;;5.70;85.88;95906.56;5795823;24;20250;-85
2023/04/02 18:05:50;;;;;;;3.63;3.27;;;;;;;5.46;87.02;95910.88;5766637;24;20632;-85
2023/04/02 18:08:43;;;;;;;2.80;2.60;;;;;;;5.47;86.74;95909.94;5822776;24;20174;-85
2023/04/02 18:11:26;;;;;;;3.67;3.20;;;;;;;5.52;85.77;95916.44;5875335;24;20214;-83
2023/04/02 18:13:57;;;;;;;5.30;3.20;;;;;;;5.44;86.42;95925.63;5956453;23;20252;-86
2023/04/02 18:16:50;;;;;;;3.07;2.77;;;;;;;5.48;86.00;95921.88;6019856;23;20189;-84
2023/04/02 18:19:33;;;;;;;3.20;2.83;;;;;;;5.54;85.48;95927.44;6040312;23;20192;-84
2023/04/02 18:22:28;;;;;;;4.17;3.30;;;;;;;5.64;85.04;95930.19;6032850;23;20236;-85
2023/04/02 18:25:04;;;;;;;2.63;2.40;;;;;;;5.29;86.08;95937.78;6007676;23;20216;-84
2023/04/02 18:27:48;;;;;;;2.53;2.33;;;;;;;5.53;84.93;95941.25;5990923;23;20161;-85
2023/04/02 18:30:30;;;;;;;3.80;3.40;;;;;;;5.45;84.98;95951.25;6013170;23;20221;-84
2023/04/02 18:33:06;;;;;;;3.87;3.47;;;;;;;5.10;85.89;95951.09;6013765;23;20158;-85
2023/04/02 18:35:34;;;;;;;5.33;4.37;;;;;;;5.31;85.33;95954.81;5989802;23;20156;-85
2023/04/02 18:38:17;;;;;;;11.60;7.70;;;;;;;5.22;85.50;95958.00;6015543;23;20178;-85
2023/04/02 18:41:11;;;;;;;4.23;3.83;;;;;;;5.19;85.27;95965.94;6013906;23;20624;-87
2023/04/02 18:44:10;;;;;;;3.37;2.80;;;;;;;5.06;86.86;95968.53;6014347;23;20204;-86
2023/04/02 18:46:56;;;;;;;3.63;3.33;;;;;;;4.92;86.92;95980.66;6013527;23;20197;-86
2023/04/02 18:49:41;;;;;;;3.50;3.20;;;;;;;4.84;87.03;95984.56;6023689;23;20212;-84
2023/04/02 18:52:12;;;;;;;4.00;3.47;;;;;;;4.72;86.39;95997.44;6044392;23;20251;-83
2023/04/02 18:55:03;;;;;;;3.70;3.40;;;;;;;4.48;86.47;96005.81;6042130;23;20183;-83
2023/04/02 18:57:37;;;;;;;4.43;4.03;;;;;;;4.47;85.79;96024.75;6019391;23;20732;-84
2023/04/02 19:00:30;;;;;;;4.83;4.10;;;;;;;4.29;86.01;96018.22;6039579;23;20256;-83
2023/04/02 19:03:18;;;;;;;4.63;4.20;;;;;;;4.04;86.93;96025.81;6066751;23;20164;-84
2023/04/02 19:06:44;;;;;;;4.97;4.20;;;;;;;4.13;86.79;96023.50;6065588;23;20193;-84
2023/04/02 19:09:23;;;;;;;4.70;4.30;;;;;;;4.33;86.14;96041.97;6009280;23;20238;-84
2023/04/02 19:11:57;;;;;;;5.57;4.00;;;;;;;4.29;84.67;96043.91;6007240;23;20884;-83
2023/04/02 19:14:34;;;;;;;4.13;3.50;;;;;;;4.15;84.14;96044.81;6004803;23;20560;-85
2023/04/02 19:17:25;;;;;;;4.33;3.93;;;;;;;3.96;83.72;96054.56;5983849;23;20198;-83
2023/04/02 19:20:39;;;;;;;4.80;3.70;;;;;;;4.07;83.11;96059.06;6007250;23;20179;-83
2023/04/02 19:23:41;;;;;;;4.60;4.17;;;;;;;3.82;83.12;96070.00;6006574;23;20235;-83
2023/04/02 19:26:30;;;;;;;4.83;3.60;;;;;;;3.74;83.38;96072.22;6006246;23;20201;-84
2023/04/02 19:29:15;;;;;;;4.57;3.93;;;;;;;3.78;82.86;96082.19;6006805;23;20186;-83
2023/04/02 19:32:10;;;;;;;3.93;3.53;;;;;;;3.62;83.49;96076.34;6007096;23;20222;-85
2023/04/02 19:34:49;;;;;;;4.10;3.67;;;;;;;3.54;83.19;96091.41;6007229;23;20163;-83
2023/04/02 19:37:38;;;;;;;4.30;3.47;;;;;;;3.55;82.61;96103.31;6007598;23;20163;-83
2023/04/02 19:40:18;;;;;;;3.53;3.23;;;;;;;3.33;82.89;96101.19;6025483;23;20281;-84
2023/04/02 19:43:15;;;;;;;3.73;3.23;;;;;;;3.29;83.32;96107.44;6090604;23;20162;-83
2023/04/02 19:45:49;;;;;;;5.10;4.13;;;;;;;3.45;82.30;96108.19;6064996;23;20220;-83
2023/04/02 19:48:35;;;;;;;3.93;3.57;;;;;;;3.23;83.00;96111.16;6089018;23;20583;-84
2023/04/02 19:51:03;;;;;;;3.50;3.20;;;;;;;3.34;81.08;96102.84;6070544;23;20757;-83
2023/04/02 19:53:35;;;;;;;3.47;3.17;;;;;;;3.08;80.88;96109.47;6070501;23;20165;-84
2023/04/02 19:56:06;;;;;;;3.60;3.30;;;;;;;3.39;80.01;96105.97;6094537;23;20157;-83
2023/04/02 19:58:42;;;;;;;3.23;3.00;;;;;;;3.31;79.76;96115.84;6071051;23;20639;-84
2023/04/02 20:01:16;;;;;;;3.40;3.10;;;;;;;3.29;79.38;96113.38;6071185;23;20164;-83
2023/04/02 20:04:08;;;;;;;4.33;3.30;;;;;;;3.31;79.38;96121.00;6073752;23;20254;-84
2023/04/02 20:06:42;;;;;;;4.97;4.20;;;;;;;3.33;79.00;96127.69;6094313;23;20786;-84
2023/04/02 20:09:28;;;;;;;4.00;3.60;;;;;;;3.35;78.13;96125.84;6071829;23;20263;-84
2023/04/02 20:11:57;;;;;;;4.60;4.03;;;;;;;3.24;78.45;96128.22;6095812;23;20164;-83
2023/04/02 20:14:22;;;;;;;7.13;4.63;;;;;;;3.33;77.93;96137.13;6070453;23;20164;-84
2023/04/02 20:16:54;;;;;;;3.90;3.50;;;;;;;3.35;77.66;96146.38;6095606;23;20655;-83
2023/04/02 20:19:29;;;;;;;9.60;4.47;;;;;;;3.08;78.54;96146.22;6093966;23;20238;-83
2023/04/02 20:21:59;;;;;;;9.33;6.00;;;;;;;3.28;78.40;96141.72;6095558;23;20608;-84
2023/04/02 20:24:30;;;;;;;3.50;3.20;;;;;;;3.48;77.32;96141.38;6072621;23;20159;-82
2023/04/02 20:27:07;;;;;;;5.03;3.73;;;;;;;3.39;77.33;96153.00;6071154;23;20176;-83
2023/04/02 20:29:32;;;;;;;4.07;3.20;;;;;;;3.12;76.62;96158.00;6083768;23;20212;-85
2023/04/02 20:31:57;;;;;;;3.90;3.50;;;;;;;3.00;77.62;96157.84;6021787;23;20237;-83
2023/04/02 20:34:23;;;;;;;5.70;3.27;;;;;;;2.85;76.55;96164.69;6044854;23;20165;-83
2023/04/02 20:36:48;;;;;;;3.83;2.73;;;;;;;2.67;77.17;96181.09;6044488;23;20897;-84
2023/04/02 20:39:18;;;;;;;4.27;3.17;;;;;;;3.01;76.15;96169.78;6022150;23;20178;-83
2023/04/02 20:41:44;;;;;;;3.97;3.10;;;;;;;2.93;76.81;96171.94;6047195;23;20161;-82
2023/04/02 20:44:11;;;;;;;5.23;3.00;;;;;;;2.84;76.50;96173.28;6046262;23;20168;-83
2023/04/02 20:47:12;;;;;;;4.03;3.00;;;;;;;3.06;75.74;96172.91;6069197;23;20253;-86
2023/04/02 20:49:42;;;;;;;3.23;2.77;;;;;;;2.95;76.43;96180.38;6055893;23;20193;-85
2023/04/02 20:52:10;;;;;;;3.20;2.90;;;;;;;2.70;76.25;96179.16;6091205;23;20150;-81
2023/04/02 20:55:04;;;;;;;2.80;2.50;;;;;;;2.96;74.89;96182.03;6067050;23;20181;-83
2023/04/02 20:58:06;;;;;;;4.47;3.03;;;;;;;2.85;74.99;96185.19;6067981;23;20177;-83
2023/04/02 21:00:40;;;;;;;3.07;2.73;;;;;;;2.86;75.90;96186.84;6068040;23;20160;-83
2023/04/02 21:03:13;;;;;;;3.27;2.97;;;;;;;2.99;75.33;96186.97;6066832;23;20160;-83
2023/04/02 21:05:48;;;;;;;3.93;2.93;;;;;;;2.93;75.10;96193.28;6089799;23;20193;-82
2023/04/02 21:08:24;;;;;;;3.43;2.50;;;;;;;2.75;74.93;96199.44;6088897;23;20172;-83
2023/04/02 21:11:06;;;;;;;6.27;2.90;;;;;;;2.67;75.56;96197.28;6066855;23;20167;-84
2023/04/02 21:13:34;;;;;;;4.63;2.80;;;;;;;2.68;75.18;96201.50;6067997;23;20161;-83
2023/04/02 21:16:04;;;;;;;4.07;2.93;;;;;;;2.71;75.44;96198.78;6090189;23;20165;-82
2023/04/02 21:18:35;;;;;;;4.57;2.37;;;;;;;2.62;75.87;96195.88;6066797;23;20525;-83
2023/04/02 21:21:12;;;;;;;3.70;2.80;;;;;;;2.55;75.92;96209.03;6043811;23;20229;-83
2023/04/02 21:23:43;;;;;;;4.20;2.87;;;;;;;2.67;75.41;96206.72;6068347;23;20161;-83
2023/04/02 21:26:29;;;;;;;3.43;2.47;;;;;;;2.76;75.08;96216.47;6091481;23;20235;-83
2023/04/02 21:29:00;;;;;;;3.17;2.50;;;;;;;2.48;75.36;96214.59;6067467;23;20219;-83
2023/04/02 21:31:37;;;;;;;3.40;2.97;;;;;;;2.45;74.69;96213.00;6091574;23;20606;-82
2023/04/02 21:34:24;;;;;;;2.60;2.27;;;;;;;2.50;73.99;96211.03;6066958;23;20240;-82
2023/04/02 21:37:11;;;;;;;3.37;2.57;;;;;;;2.68;72.94;96229.72;6066184;23;20239;-82
2023/04/02 21:39:39;;;;;;;3.47;2.73;;;;;;;2.37;73.23;96222.00;6068514;23;20181;-82
2023/04/02 21:42:13;;;;;;;3.63;2.60;;;;;;;2.66;72.78;96221.28;6068044;23;20502;-83
2023/04/02 21:44:47;;;;;;;2.43;2.10;;;;;;;2.34;73.15;96210.19;6066678;23;20599;-84
2023/04/02 21:47:29;;;;;;;3.63;2.57;;;;;;;2.63;72.54;96213.75;6068253;23;20173;-84
2023/04/02 21:50:13;;;;;;;4.30;2.70;;;;;;;2.51;71.94;96210.13;6090181;23;20253;-83
2023/04/02 21:52:59;;;;;;;3.73;2.30;;;;;;;2.30;72.13;96215.53;6068281;23;20164;-83
2023/04/02 21:55:25;;;;;;;4.70;2.60;;;;;;;2.37;72.42;96215.13;6065424;23;20153;-83
2023/04/02 21:57:55;;;;;;;2.77;2.53;;;;;;;2.59;71.54;96217.41;6066221;23;20162;-83
2023/04/02 22:00:34;;;;;;;3.93;3.10;;;;;;;2.60;71.69;96223.34;6086917;23;20252;-84
2023/04/02 22:03:03;;;;;;;2.57;2.37;;;;;;;2.66;71.52;96230.72;6089878;23;20165;-83
2023/04/02 22:05:31;;;;;;;3.83;2.80;;;;;;;2.71;71.03;96234.69;6065979;23;20187;-84
2023/04/02 22:08:01;;;;;;;3.57;2.37;;;;;;;2.61;71.34;96227.56;6066770;23;20228;-84
2023/04/02 22:10:29;;;;;;;4.70;2.50;;;;;;;2.36;71.50;96235.72;6066218;23;20169;-83
2023/04/02 22:13:01;;;;;;;3.80;2.57;;;;;;;2.33;71.64;96238.47;6090985;23;20244;-84
2023/04/02 22:15:31;;;;;;;3.00;2.57;;;;;;;2.38;71.47;96237.28;6090007;23;20161;-83
2023/04/02 22:18:02;;;;;;;2.93;2.63;;;;;;;2.39;71.57;96241.53;6067478;23;20239;-82
2023/04/02 22:20:37;;;;;;;3.70;2.50;;;;;;;2.22;71.68;96242.41;6094705;23;20192;-83
2023/04/02 22:23:04;;;;;;;3.00;2.60;;;;;;;2.21;71.76;96239.94;6093291;23;20168;-84
2023/04/02 22:25:35;;;;;;;4.43;2.50;;;;;;;2.36;71.60;96233.16;6065717;23;20679;-83
2023/04/02 22:28:24;;;;;;;5.50;2.63;;;;;;;2.49;70.98;96236.75;6089829;23;20172;-84
2023/04/02 22:31:42;;;;;;;3.43;2.57;;;;;;;2.34;71.61;96235.81;6044875;23;20208;-83
2023/04/02 22:34:15;;;;;;;3.00;2.33;;;;;;;2.44;72.51;96228.47;6066282;23;20161;-84
2023/04/02 22:36:44;;;;;;;2.93;2.00;;;;;;;2.37;71.70;96235.63;6066303;23;20153;-84
2023/04/02 22:39:22;;;;;;;;;;;;;;;;;;;;;
2023/04/02 22:41:56;;;;;;;3.97;2.60;;;;;;;2.59;71.54;96230.22;6088580;23;20249;-84
2023/04/02 22:44:22;;;;;;;3.57;2.70;;;;;;;2.63;70.80;96233.44;6066575;23;20157;-84
2023/04/02 22:47:03;;;;;;;3.30;2.70;;;;;;;2.39;70.89;96227.91;6066558;23;20256;-84
2023/04/02 22:49:33;;;;;;;3.17;2.53;;;;;;;2.39;71.70;96228.72;6067044;23;20292;-84
2023/04/02 22:52:05;;;;;;;4.30;3.17;;;;;;;2.38;72.32;96226.22;6090752;23;20596;-82
2023/04/02 22:54:40;;;;;;;2.70;2.50;;;;;;;2.65;71.10;96226.47;6090131;23;20179;-84
2023/04/02 22:57:05;;;;;;;3.13;2.20;;;;;;;2.61;70.93;96222.44;6090200;23;20164;-83
2023/04/02 22:59:39;;;;;;;5.20;2.60;;;;;;;2.77;70.82;96228.41;6066075;23;20181;-84
2023/04/02 23:02:15;;;;;;;3.97;2.57;;;;;;;2.51;70.74;96228.06;6066883;23;20668;-84
2023/04/02 23:04:48;;;;;;;2.93;2.67;;;;;;;2.46;70.61;96226.63;6066286;23;20221;-84
2023/04/02 23:07:21;;;;;;;3.40;2.60;;;;;;;2.43;71.56;96235.31;6066806;23;20241;-83
2023/04/02 23:09:51;;;;;;;3.80;2.67;;;;;;;2.46;71.60;96230.03;6092185;23;20277;-84
2023/04/02 23:12:20;;;;;;;3.57;2.70;;;;;;;2.31;71.98;96235.16;6096257;23;20157;-84
2023/04/02 23:14:48;;;;;;;3.23;2.40;;;;;;;2.34;71.25;96227.31;6075685;23;20611;-84
2023/04/02 23:17:13;;;;;;;3.30;2.63;;;;;;;2.46;71.59;96224.06;6072735;23;20174;-84
2023/04/02 23:19:43;;;;;;;5.30;3.00;;;;;;;2.38;71.69;96232.16;6094873;23;20187;-84
2023/04/02 23:22:12;;;;;;;2.93;2.50;;;;;;;2.44;71.50;96236.16;6094221;23;20211;-84
2023/04/02 23:24:56;;;;;;;3.37;2.40;;;;;;;2.49;71.89;96237.56;6092830;23;20192;-84
2023/04/02 23:27:41;;;;;;;2.57;2.30;;;;;;;2.66;71.60;96241.81;6094877;23;20154;-84
2023/04/02 23:30:15;;;;;;;3.07;2.50;;;;;;;2.34;71.18;96250.38;6069250;23;20188;-83
2023/04/02 23:32:49;;;;;;;3.47;2.73;;;;;;;2.33;71.79;96244.41;6092959;23;20161;-84
2023/04/02 23:35:28;;;;;;;4.23;2.43;;;;;;;2.31;71.49;96246.25;6092073;23;20162;-83
2023/04/02 23:38:11;;;;;;;2.50;2.30;;;;;;;2.47;71.31;96230.84;6092943;23;20161;-83
2023/04/02 23:40:50;;;;;;;3.63;2.83;;;;;;;2.47;71.63;96231.72;6065162;23;20165;-83
2023/04/02 23:43:35;;;;;;;2.57;2.37;;;;;;;2.71;70.76;96233.84;6092657;23;20161;-84
2023/04/02 23:46:17;;;;;;;4.87;2.60;;;;;;;2.57;71.12;96234.59;6092517;23;20181;-84
2023/04/02 23:48:51;;;;;;;3.40;2.80;;;;;;;2.55;70.85;96239.78;6091803;23;20203;-84
2023/04/02 23:51:30;;;;;;;3.73;2.40;;;;;;;2.62;71.05;96230.03;6090722;23;20161;-84
2023/04/02 23:54:01;;;;;;;4.03;2.73;;;;;;;2.55;70.89;96233.84;6068236;23;20157;-84
2023/04/02 23:56:32;;;;;;;3.20;2.27;;;;;;;2.62;70.23;96236.91;6092707;23;20153;-83
2023/04/02 23:59:07;;;;;;;3.63;2.80;;;;;;;2.68;70.43;96229.72;6093557;23;20208;-83
